Time;durP1;ratioP1;P1;durP2;ratioP2;P2;SDS_P1;SDS_P2;PMS_P1;PMS_P2;Temp;Humidity;BMP_temperature;BMP_pressure;BME280_temperature;BME280_humidity;BME280_pressure;Samples;Min_cycle;Max_cycle;Signal;HPM_P1;HPM_P2
2022/02/12 00:00:12;;;;;;;11.05;6.43;;;22.80;38.00;;;;;;6249682;27;81828;-67
2022/02/12 00:03:13;;;;;;;10.73;6.35;;;22.70;38.00;;;;;;6238552;28;81691;-66
2022/02/12 00:06:13;;;;;;;12.70;6.43;;;22.70;37.90;;;;;;6217255;28;81117;-67
2022/02/12 00:09:14;;;;;;;9.98;5.90;;;22.70;37.90;;;;;;6201757;28;80815;-67
2022/02/12 00:12:15;;;;;;;13.85;6.40;;;22.70;37.90;;;;;;6212038;28;80619;-66
2022/02/12 00:15:18;;;;;;;9.40;5.75;;;22.70;37.90;;;;;;6235299;28;80385;-65
2022/02/12 00:18:19;;;;;;;9.77;5.72;;;22.70;37.90;;;;;;6218305;28;80480;-65
2022/02/12 00:21:24;;;;;;;9.38;5.60;;;22.70;37.80;;;;;;6229979;28;81660;-66
2022/02/12 00:24:24;;;;;;;13.27;6.53;;;22.70;37.80;;;;;;6227591;28;81018;-66
2022/02/12 00:27:25;;;;;;;11.90;6.50;;;22.70;37.80;;;;;;6207478;28;81726;-66
2022/02/12 00:30:27;;;;;;;10.13;5.72;;;22.60;37.90;;;;;;6224097;28;82175;-65
2022/02/12 00:33:28;;;;;;;9.82;5.90;;;22.70;38.00;;;;;;6233965;28;80946;-65
2022/02/12 00:36:29;;;;;;;10.55;6.80;;;22.60;38.00;;;;;;6222539;28;80492;-66
2022/02/12 00:39:29;;;;;;;10.90;5.68;;;22.60;38.10;;;;;;6237483;28;82506;-66
2022/02/12 00:42:30;;;;;;;9.55;5.70;;;22.60;38.10;;;;;;6229224;28;80792;-65
2022/02/12 00:45:30;;;;;;;10.70;5.78;;;22.60;38.10;;;;;;6229771;28;83090;-65
2022/02/12 00:48:31;;;;;;;10.90;6.07;;;22.60;38.00;;;;;;6226807;28;80586;-65
2022/02/12 00:51:31;;;;;;;8.38;5.50;;;22.60;38.00;;;;;;6231333;28;81191;-64
2022/02/12 00:54:32;;;;;;;8.65;5.75;;;22.60;38.10;;;;;;6231513;28;80665;-63
2022/02/12 00:57:33;;;;;;;10.32;6.22;;;22.60;38.10;;;;;;6228303;28;85278;-64
2022/02/12 01:00:34;;;;;;;8.70;5.68;;;22.60;38.10;;;;;;6241290;27;81003;-64
2022/02/12 01:03:34;;;;;;;8.23;5.25;;;22.50;38.10;;;;;;6243655;27;81330;-66
2022/02/12 01:06:35;;;;;;;9.45;5.60;;;22.50;38.10;;;;;;6255780;27;81559;-65
2022/02/12 01:09:37;;;;;;;12.80;6.45;;;22.50;38.20;;;;;;6257901;28;80407;-65
2022/02/12 01:12:38;;;;;;;9.43;5.63;;;22.50;38.10;;;;;;6255124;27;80528;-66
2022/02/12 01:15:38;;;;;;;8.65;5.40;;;22.50;38.30;;;;;;6257603;27;80677;-66
2022/02/12 01:18:39;;;;;;;13.38;6.57;;;22.50;38.40;;;;;;6258493;27;80405;-65
2022/02/12 01:21:39;;;;;;;9.60;5.90;;;22.60;38.40;;;;;;6245396;28;80942;-65
2022/02/12 01:24:42;;;;;;;9.85;5.40;;;22.50;38.40;;;;;;6251909;27;80436;-65
2022/02/12 01:27:42;;;;;;;9.90;5.70;;;22.50;38.30;;;;;;6257930;27;80969;-65
2022/02/12 01:30:44;;;;;;;9.20;5.13;;;22.50;38.30;;;;;;6257133;27;81588;-65
2022/02/12 01:33:45;;;;;;;11.18;5.65;;;22.50;38.30;;;;;;6245359;27;80655;-66
2022/02/12 01:36:45;;;;;;;9.75;5.50;;;22.50;38.30;;;;;;6258279;27;80404;-67
2022/02/12 01:39:46;;;;;;;9.73;5.25;;;22.60;38.60;;;;;;6250626;27;80411;-67
2022/02/12 01:42:46;;;;;;;7.90;4.82;;;22.60;38.60;;;;;;6252126;28;80659;-67
2022/02/12 01:45:47;;;;;;;8.75;5.18;;;22.50;38.60;;;;;;6232334;28;83762;-67
2022/02/12 01:48:49;;;;;;;9.73;4.55;;;22.60;38.60;;;;;;6226031;28;80700;-67
2022/02/12 01:51:49;;;;;;;7.60;5.25;;;22.50;38.60;;;;;;6248820;27;80593;-66
2022/02/12 01:54:50;;;;;;;10.32;5.75;;;22.50;38.60;;;;;;6252163;27;81951;-66
2022/02/12 01:57:50;;;;;;;9.60;5.38;;;22.50;38.60;;;;;;6250134;27;81600;-66
2022/02/12 02:00:51;;;;;;;11.02;5.57;;;22.60;38.60;;;;;;6252165;27;81382;-65
2022/02/12 02:03:52;;;;;;;8.60;4.75;;;22.50;38.60;;;;;;6256040;27;82751;-67
2022/02/12 02:06:52;;;;;;;7.28;4.30;;;22.50;38.60;;;;;;6245327;27;80284;-66
2022/02/12 02:09:53;;;;;;;7.28;4.65;;;22.50;38.60;;;;;;6276422;27;80919;-66
2022/02/12 02:12:53;;;;;;;8.13;5.05;;;22.50;38.60;;;;;;6257202;28;80246;-67
2022/02/12 02:15:54;;;;;;;8.20;4.68;;;22.50;38.70;;;;;;6266092;27;80367;-67
2022/02/12 02:18:54;;;;;;;8.68;5.53;;;22.50;38.70;;;;;;6258504;27;80629;-66
2022/02/12 02:21:55;;;;;;;10.73;5.05;;;22.50;38.60;;;;;;6258952;27;80568;-65
2022/02/12 02:24:55;;;;;;;9.15;5.40;;;22.50;38.70;;;;;;6258136;27;80071;-66
2022/02/12 02:27:56;;;;;;;8.68;4.90;;;22.50;38.70;;;;;;6241479;28;81667;-66
2022/02/12 02:30:56;;;;;;;6.95;4.22;;;22.50;38.60;;;;;;6259717;27;80751;-67
2022/02/12 02:33:57;;;;;;;7.85;4.78;;;22.50;38.70;;;;;;6257151;27;80299;-67
2022/02/12 02:36:57;;;;;;;8.10;4.35;;;22.50;38.60;;;;;;6256992;27;87426;-66
2022/02/12 02:39:58;;;;;;;9.70;4.85;;;22.50;38.70;;;;;;6255840;28;80660;-67
2022/02/12 02:43:00;;;;;;;7.57;4.40;;;22.50;38.60;;;;;;6262729;27;80891;-67
2022/02/12 02:46:01;;;;;;;8.82;4.40;;;22.40;38.60;;;;;;6256983;27;81216;-67
2022/02/12 02:49:01;;;;;;;8.32;4.97;;;22.50;38.70;;;;;;6258073;27;80560;-67
2022/02/12 02:58:40;;;;;;;7.03;4.18;;;22.40;38.60;;;;;;6265026;27;80432;-67
2022/02/12 03:01:41;;;;;;;6.35;4.15;;;22.40;38.70;;;;;;6258586;27;80558;-68
2022/02/12 03:04:41;;;;;;;7.38;4.15;;;22.40;38.90;;;;;;6245664;27;80928;-66
2022/02/12 03:07:42;;;;;;;7.68;3.90;;;22.40;38.90;;;;;;6256659;27;81622;-67
2022/02/12 03:10:42;;;;;;;8.23;4.32;;;22.40;38.80;;;;;;6262866;27;80305;-67
2022/02/12 03:13:43;;;;;;;7.80;4.20;;;22.40;38.80;;;;;;6256477;27;80743;-67
2022/02/12 03:16:43;;;;;;;6.82;4.50;;;22.40;38.80;;;;;;6243094;27;80712;-66
2022/02/12 03:19:44;;;;;;;6.80;4.03;;;22.40;38.80;;;;;;6262158;27;80633;-66
2022/02/12 03:22:45;;;;;;;8.52;4.20;;;22.50;38.80;;;;;;6244644;28;81223;-65
2022/02/12 03:25:45;;;;;;;8.25;4.90;;;22.50;38.80;;;;;;6256978;27;80453;-66
2022/02/12 03:28:46;;;;;;;7.72;4.65;;;22.50;38.80;;;;;;6261196;27;80422;-65
2022/02/12 03:31:47;;;;;;;7.85;4.13;;;22.40;38.80;;;;;;6257577;27;81978;-66
2022/02/12 03:34:48;;;;;;;7.22;4.13;;;22.50;39.50;;;;;;6248439;27;81435;-66
2022/02/12 03:37:49;;;;;;;6.05;3.53;;;22.50;38.90;;;;;;6263376;27;80449;-67
2022/02/12 03:40:50;;;;;;;7.40;4.20;;;22.40;38.80;;;;;;6258258;27;80918;-66
2022/02/12 03:43:51;;;;;;;5.40;3.70;;;22.40;38.80;;;;;;6253696;27;81385;-67
2022/02/12 03:46:51;;;;;;;6.50;4.13;;;22.40;38.80;;;;;;6247478;28;80180;-66
2022/02/12 03:49:52;;;;;;;5.40;3.30;;;22.40;38.70;;;;;;6250881;28;81984;-66
2022/02/12 03:52:52;;;;;;;8.35;4.45;;;22.40;38.70;;;;;;6255135;27;80448;-67
2022/02/12 03:55:53;;;;;;;5.85;3.40;;;22.40;38.70;;;;;;6254334;27;81909;-66
2022/02/12 03:58:53;;;;;;;6.90;3.78;;;22.40;38.90;;;;;;6244766;27;81804;-66
2022/02/12 04:01:54;;;;;;;6.47;4.15;;;22.40;38.90;;;;;;6254833;27;81230;-66
2022/02/12 04:04:54;;;;;;;4.95;3.60;;;22.40;38.90;;;;;;6255057;27;80646;-67
2022/02/12 04:07:55;;;;;;;6.32;3.83;;;22.40;39.00;;;;;;6262406;27;82134;-67
2022/02/12 04:10:55;;;;;;;8.27;3.88;;;22.40;38.90;;;;;;6272459;27;80860;-68
2022/02/12 04:13:56;;;;;;;5.95;3.85;;;22.40;38.80;;;;;;6242632;27;80286;-67
2022/02/12 04:16:57;;;;;;;5.10;3.47;;;22.40;38.70;;;;;;6248393;27;82775;-67
2022/02/12 04:20:01;;;;;;;5.30;3.88;;;22.40;38.80;;;;;;6257262;27;80657;-67
2022/02/12 04:23:01;;;;;;;7.35;3.90;;;22.40;38.20;;;;;;6241364;27;81470;-67
2022/02/12 04:26:03;;;;;;;5.88;3.78;;;22.50;37.90;;;;;;6254024;28;80412;-67
2022/02/12 04:29:03;;;;;;;5.97;3.88;;;22.50;37.70;;;;;;6256069;27;81638;-67
2022/02/12 04:32:04;;;;;;;5.28;3.58;;;22.60;37.60;;;;;;6251905;27;80500;-67
2022/02/12 04:35:05;;;;;;;5.03;3.40;;;22.60;37.30;;;;;;6244518;27;81714;-67
2022/02/12 04:38:05;;;;;;;6.18;3.90;;;22.60;37.20;;;;;;6246412;27;80499;-67
2022/02/12 04:41:06;;;;;;;7.05;3.78;;;22.70;37.00;;;;;;6242027;27;80837;-66
2022/02/12 04:44:06;;;;;;;7.43;3.45;;;22.70;36.80;;;;;;6258560;27;80633;-66
2022/02/12 04:47:07;;;;;;;6.25;3.60;;;22.70;36.80;;;;;;6258537;27;80402;-67
2022/02/12 04:50:07;;;;;;;6.70;3.60;;;22.80;36.70;;;;;;6261343;27;80886;-66
2022/02/12 04:53:08;;;;;;;5.90;3.03;;;22.80;36.60;;;;;;6241392;28;81059;-66
2022/02/12 04:56:08;;;;;;;4.47;3.25;;;22.80;36.50;;;;;;6243375;27;80515;-66
2022/02/12 04:59:09;;;;;;;5.03;3.03;;;22.80;36.50;;;;;;6254245;27;80333;-67
2022/02/12 05:02:10;;;;;;;7.18;4.13;;;22.90;36.30;;;;;;6254618;27;80718;-67
2022/02/12 05:05:11;;;;;;;5.45;2.97;;;22.80;36.10;;;;;;6233326;28;80501;-67
2022/02/12 05:08:11;;;;;;;5.50;2.97;;;22.90;36.00;;;;;;6241975;27;80958;-67
2022/02/12 05:11:12;;;;;;;4.63;2.72;;;22.90;35.80;;;;;;6248386;27;80366;-67
2022/02/12 05:14:12;;;;;;;5.47;3.08;;;22.90;35.70;;;;;;6247296;27;80183;-67
2022/02/12 05:17:13;;;;;;;5.03;3.22;;;22.90;35.80;;;;;;6250883;27;81547;-67
2022/02/12 05:20:13;;;;;;;4.03;2.60;;;22.90;35.70;;;;;;6247626;28;81051;-66
2022/02/12 05:23:14;;;;;;;4.97;3.10;;;22.90;35.60;;;;;;6251008;28;81704;-66
2022/02/12 05:26:16;;;;;;;7.57;3.30;;;23.00;35.70;;;;;;6245424;27;81054;-64
2022/02/12 05:29:16;;;;;;;5.63;2.85;;;23.00;35.60;;;;;;6247363;27;80356;-65
2022/02/12 05:32:17;;;;;;;3.45;2.50;;;23.00;35.60;;;;;;6243223;27;81451;-65
2022/02/12 05:35:17;;;;;;;4.07;2.90;;;23.00;35.50;;;;;;6251148;27;81374;-66
2022/02/12 05:38:18;;;;;;;4.75;2.70;;;23.00;35.20;;;;;;6249546;28;80467;-67
2022/02/12 05:41:18;;;;;;;5.10;2.78;;;23.00;35.20;;;;;;6248935;27;80462;-64
2022/02/12 05:44:19;;;;;;;5.30;2.53;;;23.00;35.10;;;;;;6253008;27;81675;-64
2022/02/12 05:47:19;;;;;;;4.80;2.78;;;23.00;35.40;;;;;;6248128;27;81786;-65
2022/02/12 05:50:22;;;;;;;4.93;2.92;;;23.10;35.30;;;;;;6244203;28;80612;-67
2022/02/12 05:53:23;;;;;;;5.03;2.85;;;23.10;35.00;;;;;;6244941;27;81567;-66
2022/02/12 05:56:23;;;;;;;5.32;2.53;;;23.10;35.30;;;;;;6255463;27;80497;-66
2022/02/12 05:59:24;;;;;;;5.75;2.67;;;23.10;35.20;;;;;;6258930;27;80716;-67
2022/02/12 06:02:24;;;;;;;15.38;3.30;;;23.10;36.10;;;;;;6248990;27;80531;-66
2022/02/12 06:05:25;;;;;;;6.32;2.72;;;23.10;36.40;;;;;;6246820;27;80696;-65
2022/02/12 06:08:25;;;;;;;12.10;3.40;;;23.20;36.60;;;;;;6241746;27;80531;-66
2022/02/12 06:11:26;;;;;;;5.63;3.28;;;23.20;37.00;;;;;;6225012;27;81539;-65
2022/02/12 06:14:26;;;;;;;7.90;3.60;;;23.20;37.40;;;;;;6257744;27;81458;-66
2022/02/12 06:17:27;;;;;;;5.25;3.10;;;23.10;37.80;;;;;;6255639;27;80161;-67
2022/02/12 06:20:28;;;;;;;8.38;3.28;;;23.10;37.60;;;;;;6244072;27;81459;-67
2022/02/12 06:23:28;;;;;;;6.85;3.15;;;23.10;37.50;;;;;;6247090;27;80560;-67
2022/02/12 06:26:29;;;;;;;6.95;3.15;;;23.10;37.60;;;;;;6255440;27;81753;-69
2022/02/12 06:29:29;;;;;;;3.90;2.72;;;23.10;37.80;;;;;;6247406;27;80475;-66
2022/02/12 06:32:30;;;;;;;9.55;2.72;;;23.00;37.70;;;;;;6244642;27;81205;-67
2022/02/12 06:35:30;;;;;;;3.92;2.55;;;23.00;37.80;;;;;;6245263;27;80691;-68
2022/02/12 06:38:31;;;;;;;8.68;3.83;;;23.10;38.20;;;;;;6258134;27;80967;-68
2022/02/12 06:41:37;;;;;;;4.53;2.97;;;23.10;38.10;;;;;;6253666;27;80770;-68
2022/02/12 06:44:38;;;;;;;4.80;2.85;;;23.10;38.20;;;;;;6252139;27;82717;-66
2022/02/12 06:47:39;;;;;;;7.63;3.70;;;23.10;38.20;;;;;;6254726;27;80442;-68
2022/02/12 06:50:40;;;;;;;4.50;3.00;;;23.10;38.00;;;;;;6248759;27;81121;-68
2022/02/12 06:53:43;;;;;;;5.47;2.85;;;23.10;38.30;;;;;;6262710;27;80527;-68
2022/02/12 06:56:43;;;;;;;7.50;2.47;;;23.20;38.60;;;;;;6248143;27;81577;-70
2022/02/12 06:59:44;;;;;;;10.10;2.75;;;23.20;38.40;;;;;;6250562;27;81574;-68
2022/02/12 07:02:46;;;;;;;6.43;3.35;;;23.20;38.40;;;;;;6244196;27;80798;-67
2022/02/12 07:05:47;;;;;;;6.30;2.90;;;23.20;38.10;;;;;;6224412;28;80331;-68
2022/02/12 07:08:47;;;;;;;7.30;3.08;;;23.20;38.10;;;;;;6250592;27;80542;-69
2022/02/12 07:11:48;;;;;;;8.05;3.20;;;23.20;38.00;;;;;;6257823;27;80698;-67
2022/02/12 07:14:48;;;;;;;8.93;2.72;;;23.20;37.60;;;;;;6249790;28;80987;-69
2022/02/12 07:17:49;;;;;;;7.65;3.05;;;23.20;37.70;;;;;;6255867;28;80783;-68
2022/02/12 07:20:50;;;;;;;6.75;2.75;;;23.20;38.10;;;;;;6254252;27;80837;-68
2022/02/12 07:23:50;;;;;;;8.77;2.80;;;23.30;37.40;;;;;;6248086;27;83059;-68
2022/02/12 07:26:51;;;;;;;7.93;3.10;;;23.20;37.30;;;;;;6249429;27;80938;-69
2022/02/12 07:29:51;;;;;;;5.03;2.55;;;23.30;37.70;;;;;;6246681;27;80274;-69
2022/02/12 07:32:52;;;;;;;5.93;3.40;;;23.30;37.60;;;;;;6227345;28;81654;-67
2022/02/12 07:35:52;;;;;;;8.57;3.85;;;23.30;37.90;;;;;;6235740;27;82388;-67
2022/02/12 07:38:53;;;;;;;8.40;3.58;;;23.30;38.20;;;;;;6252916;27;80540;-67
2022/02/12 07:41:53;;;;;;;8.43;3.85;;;23.40;38.40;;;;;;6251793;27;80546;-68
2022/02/12 07:44:54;;;;;;;5.65;3.67;;;23.40;37.70;;;;;;6249994;27;81689;-67
2022/02/12 07:47:54;;;;;;;9.45;3.35;;;23.40;37.80;;;;;;6244028;27;81321;-71
2022/02/12 07:50:55;;;;;;;5.47;3.30;;;23.50;37.80;;;;;;6245797;27;80356;-67
2022/02/12 07:53:56;;;;;;;5.82;2.80;;;23.50;37.90;;;;;;6251997;27;80990;-67
2022/02/12 07:56:57;;;;;;;7.57;3.33;;;23.60;37.00;;;;;;6246406;27;81339;-67
2022/02/12 07:59:57;;;;;;;6.57;3.45;;;23.60;37.40;;;;;;6246571;27;80460;-67
2022/02/12 08:02:58;;;;;;;9.88;3.50;;;23.60;37.10;;;;;;6255084;27;81508;-67
2022/02/12 08:05:58;;;;;;;10.85;3.78;;;23.60;37.40;;;;;;6251862;27;80754;-66
2022/02/12 08:08:59;;;;;;;6.10;3.65;;;23.60;36.80;;;;;;6257339;27;81309;-67
2022/02/12 08:12:15;;;;;;;8.10;3.03;;;23.70;36.90;;;;;;6261109;27;80532;-67
2022/02/12 08:15:15;;;;;;;8.05;3.95;;;23.70;37.20;;;;;;6260749;27;81705;-66
2022/02/12 08:18:16;;;;;;;7.93;3.33;;;23.70;37.00;;;;;;6259811;27;80872;-69
2022/02/12 08:21:16;;;;;;;8.15;3.33;;;23.70;36.70;;;;;;6258249;27;80404;-68
2022/02/12 08:24:17;;;;;;;4.65;2.42;;;23.40;40.30;;;;;;6250377;27;80386;-67
2022/02/12 08:27:17;;;;;;;4.70;2.30;;;23.10;42.50;;;;;;6249936;27;81118;-67
2022/02/12 08:30:18;;;;;;;5.00;2.40;;;23.00;44.00;;;;;;6255106;27;80309;-69
2022/02/12 08:33:19;;;;;;;3.40;1.88;;;23.00;45.30;;;;;;6259478;27;80568;-67
2022/02/12 08:36:19;;;;;;;3.05;2.05;;;23.00;46.70;;;;;;6230139;27;83440;-67
2022/02/12 08:39:20;;;;;;;3.35;1.92;;;22.90;47.30;;;;;;6256416;27;80689;-68
2022/02/12 08:42:20;;;;;;;3.60;1.80;;;22.80;48.10;;;;;;6251633;27;81735;-68
2022/02/12 08:45:21;;;;;;;2.10;1.60;;;22.80;48.90;;;;;;6247371;27;81678;-68
2022/02/12 08:48:21;;;;;;;4.32;2.25;;;22.70;49.20;;;;;;6240123;27;81795;-68
2022/02/12 08:51:22;;;;;;;2.50;1.58;;;22.70;49.90;;;;;;6248085;27;80902;-67
2022/02/12 08:54:22;;;;;;;1.88;1.55;;;22.80;50.00;;;;;;6232197;28;82336;-67
2022/02/12 08:57:23;;;;;;;3.00;1.65;;;22.90;50.20;;;;;;6250100;27;81294;-68
2022/02/12 09:00:23;;;;;;;2.85;1.75;;;22.90;50.40;;;;;;6249137;27;80397;-68
2022/02/12 09:03:24;;;;;;;2.03;1.70;;;22.90;50.50;;;;;;6252963;27;80461;-68
2022/02/12 09:06:24;;;;;;;2.08;1.40;;;22.90;50.40;;;;;;6244078;27;80626;-68
2022/02/12 09:09:25;;;;;;;2.42;1.60;;;22.90;50.90;;;;;;6250195;27;81470;-67
2022/02/12 09:12:25;;;;;;;4.78;2.05;;;22.90;50.40;;;;;;6242714;27;81420;-67
2022/02/12 09:15:26;;;;;;;3.15;1.60;;;23.00;51.20;;;;;;6257100;27;81379;-68
2022/02/12 09:18:27;;;;;;;2.22;1.73;;;23.00;50.90;;;;;;6240946;27;80306;-69
2022/02/12 09:21:27;;;;;;;2.13;1.48;;;22.90;51.30;;;;;;6243462;28;80699;-73
2022/02/12 09:24:28;;;;;;;2.38;1.42;;;22.90;51.20;;;;;;6257458;27;80400;-68
2022/02/12 09:27:28;;;;;;;2.83;1.63;;;23.00;51.30;;;;;;6250756;27;81467;-68
2022/02/12 09:30:29;;;;;;;4.18;2.00;;;23.10;49.50;;;;;;6244062;27;81665;-69
2022/02/12 09:33:29;;;;;;;4.68;2.38;;;23.20;46.40;;;;;;6232617;27;81745;-68
2022/02/12 09:36:32;;;;;;;4.15;2.40;;;23.30;44.40;;;;;;6249858;28;86400;-68
2022/02/12 09:39:33;;;;;;;4.82;2.47;;;23.40;41.80;;;;;;6249866;27;80918;-69
2022/02/12 09:42:34;;;;;;;6.72;3.20;;;23.60;40.90;;;;;;6238325;27;83294;-68
2022/02/12 09:45:34;;;;;;;6.95;3.25;;;23.60;39.50;;;;;;6251199;27;80522;-68
2022/02/12 09:48:35;;;;;;;8.07;3.25;;;23.80;38.60;;;;;;6230045;28;81434;-69
2022/02/12 09:51:37;;;;;;;7.95;3.67;;;23.90;37.80;;;;;;6250755;27;80244;-68
2022/02/12 09:54:37;;;;;;;9.80;3.90;;;23.90;37.00;;;;;;6245326;27;81980;-68
2022/02/12 09:57:38;;;;;;;7.82;4.05;;;24.00;36.60;;;;;;6245491;27;80592;-67
2022/02/12 10:00:38;;;;;;;6.93;2.63;;;23.90;36.30;;;;;;6246780;27;80975;-69
2022/02/12 10:03:39;;;;;;;20.30;3.97;;;23.70;36.40;;;;;;6249090;27;82543;-67
2022/02/12 10:06:41;;;;;;;13.02;3.95;;;23.80;35.20;;;;;;6247075;27;80639;-68
2022/02/12 10:09:42;;;;;;;11.68;4.40;;;23.90;34.30;;;;;;6233741;27;83375;-68
2022/02/12 10:12:42;;;;;;;9.55;4.22;;;24.00;34.50;;;;;;6244018;27;80161;-67
2022/02/12 10:15:43;;;;;;;7.57;3.90;;;24.10;34.20;;;;;;6234730;28;80873;-72
2022/02/12 10:18:45;;;;;;;7.85;3.55;;;24.10;33.80;;;;;;6259703;27;83612;-70
2022/02/12 10:21:45;;;;;;;28.65;5.50;;;24.00;34.30;;;;;;6243788;27;81741;-69
2022/02/12 10:24:46;;;;;;;16.10;4.55;;;23.80;35.20;;;;;;6251540;27;81027;-70
2022/02/12 10:27:49;;;;;;;10.15;3.72;;;23.60;35.80;;;;;;6255452;27;80583;-72
2022/02/12 10:30:49;;;;;;;8.48;4.05;;;23.50;36.70;;;;;;6245036;27;80576;-69
2022/02/12 10:33:52;;;;;;;9.18;4.93;;;23.50;37.50;;;;;;6241844;27;80775;-66
2022/02/12 10:36:52;;;;;;;11.27;4.85;;;23.50;37.90;;;;;;6272249;27;80867;-65
2022/02/12 10:39:53;;;;;;;13.40;5.93;;;23.50;38.10;;;;;;6241068;28;81701;-66
2022/02/12 10:42:55;;;;;;;10.82;5.07;;;23.50;38.50;;;;;;6257219;27;80534;-67
2022/02/12 10:45:56;;;;;;;14.98;5.82;;;23.70;37.40;;;;;;6247627;27;81002;-66
2022/02/12 10:48:56;;;;;;;9.20;4.78;;;23.90;36.30;;;;;;6250011;27;81728;-67
2022/02/12 10:51:57;;;;;;;11.27;4.55;;;24.00;35.90;;;;;;6250872;27;80793;-66
2022/02/12 10:54:57;;;;;;;12.77;5.03;;;24.10;35.60;;;;;;6256665;27;80876;-65
2022/02/12 10:57:58;;;;;;;10.88;4.93;;;24.20;35.70;;;;;;6257309;27;80717;-66
2022/02/12 11:00:58;;;;;;;24.67;4.38;;;24.30;35.80;;;;;;6247827;27;80749;-67
2022/02/12 11:03:59;;;;;;;9.25;3.97;;;24.50;35.70;;;;;;6213593;28;82007;-66
2022/02/12 11:07:02;;;;;;;9.20;4.22;;;24.70;35.90;;;;;;6225935;28;81058;-66
2022/02/12 11:10:03;;;;;;;6.15;4.07;;;24.80;36.00;;;;;;6217277;28;80479;-68
2022/02/12 11:13:03;;;;;;;6.00;3.42;;;25.00;35.60;;;;;;6218502;28;81599;-67
2022/02/12 11:16:04;;;;;;;7.35;3.55;;;25.10;35.70;;;;;;6220969;28;80828;-66
2022/02/12 11:19:04;;;;;;;9.07;3.67;;;25.20;36.00;;;;;;6222572;28;80648;-67
2022/02/12 11:22:05;;;;;;;6.53;3.38;;;25.30;35.80;;;;;;6232356;28;87591;-67
2022/02/12 11:25:05;;;;;;;6.07;3.50;;;25.20;35.40;;;;;;6228857;28;81220;-67
2022/02/12 11:28:06;;;;;;;6.40;3.17;;;25.20;35.20;;;;;;6230010;28;81052;-66
2022/02/12 11:31:06;;;;;;;4.93;3.40;;;25.20;35.90;;;;;;6220817;28;81865;-66
2022/02/12 11:34:09;;;;;;;9.45;3.70;;;25.30;36.00;;;;;;6232164;28;81566;-66
2022/02/12 11:37:09;;;;;;;7.45;3.55;;;25.40;36.90;;;;;;6227621;28;80953;-66
2022/02/12 11:40:13;;;;;;;10.20;3.97;;;25.50;36.40;;;;;;6235256;28;80231;-66
2022/02/12 11:43:13;;;;;;;7.10;3.88;;;25.60;36.80;;;;;;6220365;28;80700;-66
2022/02/12 11:46:14;;;;;;;7.07;3.55;;;25.60;36.60;;;;;;6204870;28;81579;-68
2022/02/12 11:49:14;;;;;;;8.07;3.83;;;25.70;36.80;;;;;;6210400;28;80646;-67
2022/02/12 11:52:15;;;;;;;7.25;3.25;;;25.80;37.00;;;;;;6242262;28;87400;-68
2022/02/12 11:55:15;;;;;;;6.60;3.38;;;25.80;36.80;;;;;;6239137;28;80606;-67
2022/02/12 11:58:16;;;;;;;8.65;3.72;;;25.90;36.90;;;;;;6239461;28;80478;-66
2022/02/12 12:01:16;;;;;;;6.75;3.47;;;25.90;37.70;;;;;;6253840;27;80803;-66
2022/02/12 12:04:25;;;;;;;6.00;3.38;;;25.90;38.30;;;;;;6263072;27;80909;-66
2022/02/12 12:07:25;;;;;;;5.13;3.72;;;25.90;38.10;;;;;;6256385;27;80939;-67
2022/02/12 12:10:29;;;;;;;6.13;3.53;;;26.00;37.50;;;;;;6237166;28;82794;-68
2022/02/12 12:13:29;;;;;;;6.68;3.33;;;25.90;36.20;;;;;;6260770;27;80481;-68
2022/02/12 12:16:33;;;;;;;5.68;3.25;;;26.00;35.00;;;;;;6252109;27;81365;-68
2022/02/12 12:19:34;;;;;;;8.60;3.30;;;25.90;34.80;;;;;;6260870;27;80510;-71
2022/02/12 12:22:34;;;;;;;8.85;3.45;;;26.00;35.00;;;;;;6250912;27;81564;-70
2022/02/12 12:25:35;;;;;;;6.22;2.72;;;26.00;35.10;;;;;;6248359;27;86349;-68
2022/02/12 12:28:37;;;;;;;6.85;2.80;;;26.10;35.40;;;;;;6267758;27;81071;-68
2022/02/12 12:31:38;;;;;;;18.58;3.47;;;26.10;36.00;;;;;;6274042;27;81615;-68
2022/02/12 12:34:38;;;;;;;12.63;3.58;;;26.10;36.20;;;;;;6252260;27;81264;-65
2022/02/12 12:37:39;;;;;;;4.50;2.78;;;26.10;36.30;;;;;;6248968;27;80857;-68
2022/02/12 12:40:39;;;;;;;6.68;2.65;;;26.00;36.60;;;;;;6259325;27;81053;-65
2022/02/12 12:43:40;;;;;;;5.72;2.65;;;26.00;36.40;;;;;;6241015;27;86719;-64
2022/02/12 12:46:40;;;;;;;6.13;2.65;;;26.00;36.20;;;;;;6243520;28;82031;-66
2022/02/12 12:49:41;;;;;;;4.97;2.65;;;26.00;36.60;;;;;;6255273;27;80296;-68
2022/02/12 12:52:42;;;;;;;5.80;3.15;;;26.00;36.80;;;;;;6258565;27;80591;-68
2022/02/12 12:55:42;;;;;;;6.43;2.70;;;26.00;37.50;;;;;;6257601;27;80272;-67
2022/02/12 12:58:44;;;;;;;4.53;2.47;;;26.00;37.70;;;;;;6258990;27;80393;-65
2022/02/12 13:01:45;;;;;;;7.40;2.75;;;26.00;37.70;;;;;;6250458;27;81179;-66
2022/02/12 13:04:45;;;;;;;8.45;3.40;;;26.00;37.30;;;;;;6247554;27;80925;-64
2022/02/12 13:07:46;;;;;;;5.60;2.78;;;26.00;37.00;;;;;;6250506;27;80712;-63
2022/02/12 13:10:46;;;;;;;4.90;2.45;;;26.00;35.90;;;;;;6253032;27;81429;-66
2022/02/12 13:13:47;;;;;;;3.97;2.55;;;26.00;35.40;;;;;;6243378;27;81479;-65
2022/02/12 13:16:48;;;;;;;7.57;2.50;;;26.00;35.40;;;;;;6244341;27;80978;-66
2022/02/12 13:19:50;;;;;;;4.22;2.42;;;26.00;35.00;;;;;;6247745;27;81412;-65
2022/02/12 13:22:50;;;;;;;7.97;2.40;;;26.00;34.90;;;;;;6246699;28;81622;-64
2022/02/12 13:25:51;;;;;;;4.60;2.00;;;26.00;35.20;;;;;;6245128;27;81281;-66
2022/02/12 13:28:51;;;;;;;5.88;3.08;;;26.10;35.30;;;;;;6250008;27;81483;-67
2022/02/12 13:31:54;;;;;;;5.13;2.50;;;26.10;35.40;;;;;;6241731;27;80759;-66
2022/02/12 13:34:55;;;;;;;4.80;2.90;;;26.20;35.50;;;;;;6234413;27;81031;-67
2022/02/12 13:37:56;;;;;;;3.75;2.33;;;26.20;35.70;;;;;;6247796;27;81126;-67
2022/02/12 13:40:56;;;;;;;4.43;2.47;;;26.30;35.50;;;;;;6235759;27;83798;-67
2022/02/12 13:43:57;;;;;;;5.25;2.92;;;26.30;35.40;;;;;;6258591;27;80603;-67
2022/02/12 13:46:58;;;;;;;3.38;2.33;;;26.50;35.40;;;;;;6240511;27;81825;-66
2022/02/12 13:50:26;;;;;;;3.05;2.03;;;26.50;34.70;;;;;;6176666;27;76248;-66
2022/02/12 13:53:27;;;;;;;5.15;2.60;;;26.60;35.00;;;;;;6167722;28;81375;-66
2022/02/12 13:56:27;;;;;;;5.95;2.63;;;26.80;34.80;;;;;;6168515;28;81526;-65
2022/02/12 13:59:28;;;;;;;3.92;2.53;;;26.90;34.30;;;;;;6166770;28;80830;-66
2022/02/12 14:02:28;;;;;;;3.35;1.98;;;27.20;34.10;;;;;;6164113;28;80545;-66
2022/02/12 14:05:30;;;;;;;3.50;2.28;;;27.70;33.20;;;;;;6161495;28;81306;-66
2022/02/12 14:08:30;;;;;;;2.75;2.10;;;28.40;32.40;;;;;;6163676;28;81378;-66
2022/02/12 14:11:31;;;;;;;3.92;2.67;;;28.90;31.90;;;;;;6162906;28;80597;-66
2022/02/12 14:14:31;;;;;;;2.83;2.20;;;29.10;31.80;;;;;;6162717;28;80754;-69
2022/02/12 14:17:32;;;;;;;4.72;2.08;;;29.30;31.50;;;;;;6171991;28;80570;-65
2022/02/12 14:20:32;;;;;;;4.18;2.63;;;29.40;31.30;;;;;;6176351;28;80412;-67
2022/02/12 14:23:33;;;;;;;3.58;2.22;;;29.30;31.90;;;;;;6166400;28;80572;-68
2022/02/12 14:26:34;;;;;;;4.07;2.40;;;28.80;31.60;;;;;;6179389;28;80199;-67
2022/02/12 14:29:35;;;;;;;4.32;2.50;;;28.20;31.80;;;;;;6170473;28;81573;-74
2022/02/12 14:32:36;;;;;;;4.97;2.53;;;27.80;32.60;;;;;;6165781;28;80551;-70
2022/02/12 14:35:36;;;;;;;4.38;2.70;;;27.50;33.30;;;;;;6170320;28;80563;-66
2022/02/12 14:38:37;;;;;;;6.18;2.65;;;27.10;33.70;;;;;;6170939;28;81437;-69
2022/02/12 14:41:37;;;;;;;4.25;2.78;;;26.90;34.60;;;;;;6172167;28;80857;-71
2022/02/12 14:44:40;;;;;;;6.22;2.88;;;26.70;35.30;;;;;;6172359;28;80492;-71
2022/02/12 14:47:42;;;;;;;5.95;3.17;;;26.40;35.70;;;;;;6165485;28;80886;-73
2022/02/12 14:50:42;;;;;;;7.30;3.33;;;26.30;36.40;;;;;;6161594;28;81166;-66
2022/02/12 14:53:43;;;;;;;3.67;2.33;;;26.10;36.30;;;;;;6166611;28;80905;-66
2022/02/12 14:56:43;;;;;;;4.85;3.13;;;26.00;36.90;;;;;;6158610;28;81698;-67
2022/02/12 14:59:44;;;;;;;5.40;3.22;;;25.80;37.30;;;;;;6152570;28;80343;-68
2022/02/12 15:02:44;;;;;;;3.88;2.45;;;25.60;37.40;;;;;;6145061;28;81754;-65
2022/02/12 15:05:45;;;;;;;4.32;2.40;;;25.50;38.00;;;;;;6149060;28;81233;-67
2022/02/12 15:08:46;;;;;;;2.97;2.55;;;25.40;38.30;;;;;;6146214;28;81439;-67
2022/02/12 15:11:51;;;;;;;4.65;3.15;;;25.30;38.10;;;;;;6149806;28;80332;-67
2022/02/12 15:14:54;;;;;;;8.10;3.80;;;25.20;38.60;;;;;;6143203;28;80969;-67
2022/02/12 15:17:54;;;;;;;4.13;3.15;;;25.10;38.90;;;;;;6145228;28;81626;-70
2022/02/12 15:20:55;;;;;;;4.63;3.10;;;25.10;38.90;;;;;;6144484;28;81288;-68
2022/02/12 15:23:55;;;;;;;7.03;2.65;;;25.00;38.90;;;;;;6140070;28;80460;-67
2022/02/12 15:26:56;;;;;;;5.45;3.20;;;24.90;39.20;;;;;;6142415;28;80757;-67
2022/02/12 15:29:57;;;;;;;4.05;2.60;;;24.80;39.50;;;;;;6139201;28;81852;-65
2022/02/12 15:32:58;;;;;;;6.25;2.63;;;24.50;39.80;;;;;;6143724;28;80420;-65
2022/02/12 15:35:58;;;;;;;4.05;2.65;;;24.40;40.00;;;;;;6146848;28;80411;-67
2022/02/12 15:38:59;;;;;;;6.10;3.38;;;24.20;40.20;;;;;;6148860;28;80832;-68
2022/02/12 15:42:00;;;;;;;4.22;2.78;;;24.10;40.60;;;;;;6153268;28;81090;-71
2022/02/12 15:45:01;;;;;;;5.28;2.88;;;24.00;40.70;;;;;;6144535;28;81289;-71